createdAt,value
2018-08-11T00:09:32.111Z,3
2018-08-11T00:19:32.212Z,2
2018-08-11T00:29:32.117Z,2
2018-08-11T00:39:33.174Z,2
2018-08-11T00:49:32.434Z,5
2018-08-11T00:59:32.180Z,7
2018-08-11T01:09:32.180Z,4
2018-08-11T01:19:32.215Z,4
2018-08-11T01:29:32.089Z,2
2018-08-11T01:39:32.226Z,1
2018-08-11T01:49:32.100Z,2
2018-08-11T01:59:32.195Z,2
2018-08-11T02:09:32.125Z,1
2018-08-11T02:19:32.077Z,2
2018-08-11T02:29:32.235Z,1
2018-08-11T02:39:32.128Z,2
2018-08-11T02:49:32.083Z,2
2018-08-11T02:59:32.186Z,2
2018-08-11T03:09:32.130Z,1
2018-08-11T03:19:32.265Z,2
2018-08-11T03:29:32.151Z,2
2018-08-11T03:39:32.214Z,2
2018-08-11T03:49:32.150Z,3
2018-08-11T03:59:32.110Z,5
2018-08-11T04:09:32.241Z,5
2018-08-11T04:19:32.154Z,6
2018-08-11T04:29:32.194Z,6
2018-08-11T04:39:32.153Z,7
2018-08-11T04:49:32.795Z,7
2018-08-11T04:59:32.148Z,10
2018-08-11T05:09:32.251Z,7
2018-08-11T05:19:32.205Z,8
2018-08-11T05:29:32.249Z,8
2018-08-11T05:39:32.252Z,10
2018-08-11T05:49:32.288Z,13
2018-08-11T05:59:32.221Z,13
2018-08-11T06:09:32.333Z,12
2018-08-11T06:19:32.305Z,11
2018-08-11T06:29:32.331Z,11
2018-08-11T06:39:32.371Z,11
2018-08-11T06:49:32.356Z,12
2018-08-11T06:59:32.362Z,13
2018-08-11T07:09:32.385Z,12
2018-08-11T07:19:32.375Z,10
2018-08-11T07:29:32.402Z,9
2018-08-11T07:39:33.075Z,9
2018-08-11T07:49:32.344Z,7
2018-08-11T07:59:32.453Z,6
2018-08-11T08:09:32.367Z,6
2018-08-11T08:19:32.465Z,6
2018-08-11T08:29:36.979Z,5
2018-08-11T08:39:33.134Z,3
2018-08-11T08:49:32.697Z,4
2018-08-11T08:59:33.268Z,4
2018-08-11T09:09:33.744Z,4
2018-08-11T09:19:33.071Z,3
2018-08-11T09:29:33.885Z,4
2018-08-11T09:39:32.366Z,5
2018-08-11T09:49:32.383Z,3
2018-08-11T09:59:32.493Z,3
2018-08-11T10:09:32.440Z,3
2018-08-11T10:19:45.504Z,3
2018-08-11T10:29:32.382Z,3
2018-08-11T10:39:32.524Z,3
2018-08-11T10:49:38.703Z,3
2018-08-11T10:59:47.159Z,3
2018-08-11T11:09:32.657Z,4
2018-08-11T11:19:32.664Z,6
2018-08-11T11:29:33.890Z,2
2018-08-11T11:39:33.900Z,3
2018-08-11T11:49:32.412Z,3
2018-08-11T11:59:32.440Z,3
2018-08-11T12:09:32.816Z,6
2018-08-11T12:19:33.034Z,4
2018-08-11T12:29:33.112Z,3
2018-08-11T12:39:32.484Z,2
2018-08-11T12:49:32.589Z,3
2018-08-11T12:59:33.011Z,3
2018-08-11T13:09:33.056Z,5
2018-08-11T13:19:32.908Z,3
2018-08-11T13:29:32.468Z,6
2018-08-11T13:39:33.972Z,3
2018-08-11T13:49:32.453Z,2
2018-08-11T13:59:32.530Z,3
2018-08-11T14:09:32.454Z,4
2018-08-11T14:19:32.378Z,2
2018-08-11T14:29:32.507Z,2
2018-08-11T14:39:32.489Z,2
2018-08-11T14:49:32.645Z,2
2018-08-11T14:59:32.594Z,2
2018-08-11T15:09:32.420Z,1
2018-08-11T15:19:32.414Z,1
2018-08-11T15:29:32.443Z,1
2018-08-11T15:39:32.391Z,1
2018-08-11T15:49:32.481Z,1
2018-08-11T15:59:32.402Z,2
2018-08-11T16:09:32.475Z,3
2018-08-11T16:19:32.420Z,1
2018-08-11T16:29:32.485Z,3
2018-08-11T16:39:32.546Z,1
2018-08-11T16:49:32.609Z,2
2018-08-11T16:59:32.941Z,2
2018-08-11T17:09:32.472Z,2
2018-08-11T17:19:32.524Z,1
2018-08-11T17:29:32.513Z,2
2018-08-11T17:39:32.505Z,1
2018-08-11T17:49:32.584Z,1
2018-08-11T17:59:32.616Z,1
2018-08-11T18:09:32.470Z,1
2018-08-11T18:19:32.460Z,3
2018-08-11T18:29:32.475Z,2
2018-08-11T18:39:32.477Z,2
2018-08-11T18:49:32.434Z,1
2018-08-11T18:59:32.487Z,1
2018-08-11T19:09:32.880Z,1
2018-08-11T19:19:33.001Z,8
2018-08-11T19:29:33.870Z,1
2018-08-11T19:39:36.577Z,3
2018-08-11T19:49:33.683Z,1
2018-08-11T19:59:33.440Z,2
2018-08-11T20:09:32.495Z,1
2018-08-11T20:19:32.597Z,2
2018-08-11T20:29:32.490Z,2
2018-08-11T20:39:32.524Z,3
2018-08-11T20:49:33.450Z,2
2018-08-11T20:59:32.444Z,3
2018-08-11T21:09:32.436Z,2
2018-08-11T21:19:32.396Z,2
2018-08-11T21:29:32.373Z,2
2018-08-11T21:39:33.698Z,3
2018-08-11T21:49:32.550Z,2
2018-08-11T21:59:32.507Z,2
2018-08-11T22:09:32.445Z,3
2018-08-11T22:19:32.463Z,2
2018-08-11T22:29:32.543Z,3
2018-08-11T22:39:32.523Z,2
2018-08-11T22:49:33.430Z,3
2018-08-11T22:59:32.573Z,4
2018-08-11T23:09:32.483Z,4
2018-08-11T23:19:32.563Z,3
2018-08-11T23:29:32.843Z,2
2018-08-11T23:39:32.426Z,3
2018-08-11T23:49:32.825Z,3
2018-08-11T23:59:32.388Z,4
